Time;durP1;ratioP1;P1;durP2;ratioP2;P2;SDS_P1;SDS_P2;PMS_P1;PMS_P2;Temp;Humidity;BMP_temperature;BMP_pressure;BME280_temperature;BME280_humidity;BME280_pressure;Samples;Min_cycle;Max_cycle;Signal;HPM_P1;HPM_P2
2022/12/29 00:01:19;;;;;;;;;;;;;;;6.38;90.76;96053.31;5076316;28;19965;-73
2022/12/29 00:03:45;;;;;;;;;;;;;;;6.38;90.69;96048.09;5076165;28;19953;-72
2022/12/29 00:06:11;;;;;;;;;;;;;;;6.41;89.62;96040.69;5076172;28;19960;-72
2022/12/29 00:08:40;;;;;;;;;;;;;;;6.46;89.45;96035.66;5076039;28;19949;-73
2022/12/29 00:11:07;;;;;;;;;;;;;;;6.50;88.90;96026.44;5076393;28;19964;-72
2022/12/29 00:16:18;;;;;;;;;;;;;;;6.55;89.70;96010.25;5075972;28;19965;-73
2022/12/29 00:18:43;;;;;;;;;;;;;;;6.56;89.23;96011.81;5075958;28;19950;-73
2022/12/29 00:35:10;;;;;;;;;;;;;;;6.45;91.10;96018.47;5075448;28;20404;-72
2022/12/29 00:45:53;;;;;;;;;;;;;;;6.38;91.02;96017.66;5057807;28;20016;-72
2022/12/29 00:49:29;;;;;;;;;;;;;;;6.36;91.66;96022.25;5075692;28;19965;-72
2022/12/29 00:51:05;;;;;;;;;;;;;;;6.37;90.42;96007.44;5067979;28;19958;-72
2022/12/29 00:53:31;;;;;;;;;;;;;;;6.39;90.57;96008.84;5074993;28;19968;-72
2022/12/29 00:55:57;;;;;;;;;;;;;;;6.43;90.04;95998.84;5075101;28;19959;-72
2022/12/29 00:58:23;;;;;;;;;;;;;;;6.45;90.68;96013.25;5074918;28;20423;-73
2022/12/29 01:00:49;;;;;;;;;;;;;;;6.49;91.23;96019.66;5075038;28;19969;-73
2022/12/29 01:03:15;;;;;;;;;;;;;;;6.61;89.70;95995.56;5073669;28;20367;-73
2022/12/29 01:05:41;;;;;;;;;;;;;;;6.71;89.21;95993.34;5074871;28;19957;-73
2022/12/29 01:08:06;;;;;;;;;;;;;;;6.78;88.11;95988.91;5074562;28;19980;-73
2022/12/29 01:10:32;;;;;;;;;;;;;;;6.85;87.80;95984.50;5074795;28;19951;-72
2022/12/29 01:12:58;;;;;;;;;;;;;;;6.91;87.16;95981.06;5074992;28;19978;-74
2022/12/29 01:15:24;;;;;;;;;;;;;;;6.94;87.79;95990.28;5074566;28;20005;-73
2022/12/29 01:17:50;;;;;;;;;;;;;;;6.95;88.32;95983.25;5074698;28;19965;-72
2022/12/29 01:20:16;;;;;;;;;;;;;;;6.94;87.97;95992.09;5074381;28;20476;-73
2022/12/29 01:22:43;;;;;;;;;;;;;;;6.95;87.66;95981.47;5074531;28;20000;-72
2022/12/29 01:25:09;;;;;;;;;;;;;;;7.00;88.26;95994.69;5074456;28;19972;-71
2022/12/29 01:27:35;;;;;;;;;;;;;;;7.02;87.61;95991.88;5056746;28;19953;-73
2022/12/29 01:30:01;;;;;;;;;;;;;;;7.04;87.65;96000.28;5074423;28;19963;-73
2022/12/29 01:32:26;;;;;;;;;;;;;;;7.05;88.36;96009.69;5074331;28;20016;-73
2022/12/29 01:34:52;;;;;;;;;;;;;;;7.05;87.00;95989.63;5074207;28;20471;-73
2022/12/29 01:37:18;;;;;;;;;;;;;;;7.07;87.74;95992.84;5074399;28;19972;-73
2022/12/29 01:39:44;;;;;;;;;;;;;;;7.08;88.09;96002.28;5074233;28;19956;-73
2022/12/29 01:42:15;;;;;;;;;;;;;;;7.12;88.04;96000.06;5074072;28;20007;-72
2022/12/29 01:44:48;;;;;;;;;;;;;;;7.14;87.81;96005.03;5074217;28;19948;-72
2022/12/29 01:47:18;;;;;;;;;;;;;;;7.12;87.52;95984.41;5074092;28;19960;-73
2022/12/29 01:49:44;;;;;;;;;;;;;;;7.12;88.70;96007.88;5074137;28;19959;-73
2022/12/29 01:52:10;;;;;;;;;;;;;;;7.19;87.90;95992.19;5073889;28;19957;-73
2022/12/29 01:54:42;;;;;;;;;;;;;;;7.23;86.82;95991.56;5074215;28;20432;-73
2022/12/29 01:57:12;;;;;;;;;;;;;;;7.35;85.65;95978.69;5074035;28;19957;-73
2022/12/29 01:59:41;;;;;;;;;;;;;;;7.40;85.35;95965.81;5073444;28;20418;-73
2022/12/29 02:02:07;;;;;;;;;;;;;;;7.47;85.81;95969.16;5073963;28;19962;-73
2022/12/29 02:04:34;;;;;;;;;;;;;;;7.49;84.79;95963.75;5073325;28;19954;-73
2022/12/29 02:07:05;;;;;;;;;;;;;;;7.48;85.37;95968.16;5074155;28;19947;-73
2022/12/29 02:09:31;;;;;;;;;;;;;;;7.50;84.62;95963.53;5073384;28;19951;-73
2022/12/29 02:11:58;;;;;;;;;;;;;;;7.49;86.14;95972.38;5072713;28;20001;-72
2022/12/29 02:14:24;;;;;;;;;;;;;;;7.51;83.40;95944.25;5073251;28;19961;-73
2022/12/29 02:17:08;;;;;;;;;;;;;;;7.56;82.64;95938.44;5055811;28;19967;-73
2022/12/29 02:19:52;;;;;;;;;;;;;;;7.60;84.52;95947.44;5073376;28;19955;-73
2022/12/29 02:22:21;;;;;;;;;;;;;;;7.60;85.08;95954.44;5073343;28;19948;-73
2022/12/29 02:25:02;;;;;;;;;;;;;;;7.60;84.84;95946.63;5073739;28;19960;-73
2022/12/29 02:27:35;;;;;;;;;;;;;;;7.61;83.13;95938.59;5073649;28;20401;-74
2022/12/29 02:30:19;;;;;;;;;;;;;;;7.66;84.86;95957.00;5059189;28;19957;-73
2022/12/29 02:32:51;;;;;;;;;;;;;;;7.82;81.49;95927.00;5073731;28;20451;-73
2022/12/29 02:35:20;;;;;;;;;;;;;;;7.91;81.53;95923.09;5073376;28;19961;-73
2022/12/29 02:38:05;;;;;;;;;;;;;;;7.96;83.01;95938.13;5073275;28;19995;-73
2022/12/29 02:40:37;;;;;;;;;;;;;;;7.93;83.55;95944.56;5073267;28;19953;-73
2022/12/29 02:43:13;;;;;;;;;;;;;;;7.88;85.19;95960.06;5073962;28;20409;-72
2022/12/29 02:45:42;;;;;;;;;;;;;;;7.83;82.58;95935.59;5073454;28;19956;-73
2022/12/29 02:48:21;;;;;;;;;;;;;;;7.80;84.75;95951.72;5073336;28;20447;-73
2022/12/29 02:50:59;;;;;;;;;;;;;;;7.77;84.41;95950.34;5073452;28;19954;-73
2022/12/29 02:56:10;;;;;;;;;;;;;;;7.73;84.67;95967.44;5055444;28;19965;-73
2022/12/29 02:58:36;;;;;;;;;;;;;;;7.75;83.73;95954.13;5073295;28;19952;-73
2022/12/29 03:01:15;;;;;;;;;;;;;;;7.77;84.38;95954.72;5073146;28;19957;-75
2022/12/29 03:03:49;;;;;;;;;;;;;;;7.78;84.13;95953.72;5073220;28;19948;-73
2022/12/29 03:06:15;;;;;;;;;;;;;;;7.79;84.50;95958.75;5073176;28;19948;-73
2022/12/29 03:08:58;;;;;;;;;;;;;;;7.81;84.14;95948.06;5073202;28;20328;-73
2022/12/29 03:17:10;;;;;;;;;;;;;;;7.88;84.69;95947.03;5072757;28;19960;-73
2022/12/29 03:19:37;;;;;;;;;;;;;;;7.93;84.56;95941.94;5072821;28;19971;-73
2022/12/29 03:22:26;;;;;;;;;;;;;;;8.03;85.35;95935.47;5072765;28;19952;-73
2022/12/29 03:24:54;;;;;;;;;;;;;;;8.10;84.37;95925.75;5073162;28;19953;-73
2022/12/29 03:27:27;;;;;;;;;;;;;;;8.19;84.42;95931.50;5075889;28;19963;-72
2022/12/29 03:29:56;;;;;;;;;;;;;;;8.28;84.38;95920.56;5076732;28;19966;-72
2022/12/29 03:32:25;;;;;;;;;;;;;;;8.33;84.21;95915.47;5076394;28;19953;-72
2022/12/29 03:34:53;;;;;;;;;;;;;;;8.41;82.86;95896.16;5076311;28;19964;-72
2022/12/29 03:37:22;;;;;;;;;;;;;;;8.48;83.81;95901.28;5077058;28;19984;-72
2022/12/29 03:39:48;;;;;;;;;;;;;;;8.53;82.68;95899.63;5076414;28;19958;-72
2022/12/29 03:42:16;;;;;;;;;;;;;;;8.53;84.10;95904.84;5076202;28;20365;-72
2022/12/29 03:44:43;;;;;;;;;;;;;;;8.56;83.16;95900.22;5076613;28;19950;-72
2022/12/29 03:47:10;;;;;;;;;;;;;;;8.53;84.14;95917.94;5076441;28;19953;-72
2022/12/29 03:49:36;;;;;;;;;;;;;;;8.54;83.96;95901.22;5076461;28;19957;-72
2022/12/29 03:52:02;;;;;;;;;;;;;;;8.55;83.37;95899.41;5076265;28;20008;-72
2022/12/29 03:54:27;;;;;;;;;;;;;;;8.54;82.90;95890.75;5076195;28;19968;-72
2022/12/29 03:56:53;;;;;;;;;;;;;;;8.55;84.32;95915.09;5076100;28;20407;-72
2022/12/29 03:59:19;;;;;;;;;;;;;;;8.51;84.79;95916.56;5076306;28;20005;-72
2022/12/29 04:01:46;;;;;;;;;;;;;;;8.48;84.77;95936.09;5075850;28;20007;-72
2022/12/29 04:04:12;;;;;;;;;;;;;;;8.41;85.32;95947.59;5076115;28;19962;-73
2022/12/29 04:06:38;;;;;;;;;;;;;;;8.36;85.83;95944.78;5075925;28;20396;-73
2022/12/29 04:09:04;;;;;;;;;;;;;;;8.36;85.54;95939.56;5075908;28;19953;-73
2022/12/29 04:11:29;;;;;;;;;;;;;;;8.36;85.33;95932.56;5075986;28;19948;-72
2022/12/29 04:13:55;;;;;;;;;;;;;;;8.39;85.85;95939.94;5075703;28;19971;-73
2022/12/29 04:16:21;;;;;;;;;;;;;;;8.42;86.19;95944.78;5075798;28;20001;-73
2022/12/29 04:18:47;;;;;;;;;;;;;;;8.43;85.91;95933.31;5075842;28;19963;-72
2022/12/29 04:21:13;;;;;;;;;;;;;;;8.43;86.18;95954.22;5075481;28;19988;-72
2022/12/29 04:23:39;;;;;;;;;;;;;;;8.43;86.45;95951.59;5075860;28;19951;-72
2022/12/29 04:26:08;;;;;;;;;;;;;;;8.43;85.78;95938.53;5075633;28;19952;-73
2022/12/29 04:28:35;;;;;;;;;;;;;;;8.44;86.58;95944.53;5075651;28;19950;-72
2022/12/29 04:31:01;;;;;;;;;;;;;;;8.46;86.58;95948.56;5075759;28;19959;-72
2022/12/29 04:33:27;;;;;;;;;;;;;;;8.47;85.82;95920.63;5075483;28;20329;-73
2022/12/29 04:35:54;;;;;;;;;;;;;;;8.49;85.12;95914.16;5075300;28;20461;-72
2022/12/29 04:38:20;;;;;;;;;;;;;;;8.52;84.99;95908.50;5075137;28;19956;-72
2022/12/29 04:40:46;;;;;;;;;;;;;;;8.54;86.41;95916.09;5075149;28;19965;-72
2022/12/29 04:43:13;;;;;;;;;;;;;;;8.58;84.99;95922.50;5075440;28;20419;-75
2022/12/29 04:45:48;;;;;;;;;;;;;;;8.57;85.45;95920.09;5074997;28;19957;-72
2022/12/29 04:48:14;;;;;;;;;;;;;;;8.58;85.66;95925.09;5075215;28;19951;-72
2022/12/29 04:50:40;;;;;;;;;;;;;;;8.56;85.63;95916.69;5074965;28;19958;-72
2022/12/29 04:53:06;;;;;;;;;;;;;;;8.58;84.97;95908.63;5074880;28;19962;-72
2022/12/29 04:55:32;;;;;;;;;;;;;;;8.61;85.11;95901.16;5075021;28;20437;-72
2022/12/29 04:57:58;;;;;;;;;;;;;;;8.63;85.03;95909.59;5074874;28;19963;-72
2022/12/29 05:00:24;;;;;;;;;;;;;;;8.64;85.23;95898.09;5057270;28;19961;-72
2022/12/29 05:02:50;;;;;;;;;;;;;;;8.65;85.67;95914.56;5075013;28;19988;-72
2022/12/29 05:05:16;;;;;;;;;;;;;;;8.64;85.50;95907.75;5074961;28;20049;-72
2022/12/29 05:07:42;;;;;;;;;;;;;;;8.61;85.53;95916.84;5074336;28;19956;-73
2022/12/29 05:10:08;;;;;;;;;;;;;;;8.60;85.13;95915.22;5074804;28;19958;-73
2022/12/29 05:12:35;;;;;;;;;;;;;;;8.64;84.95;95908.56;5075066;28;20398;-72
2022/12/29 05:15:02;;;;;;;;;;;;;;;8.69;85.14;95913.94;5074374;28;19973;-72
2022/12/29 05:17:28;;;;;;;;;;;;;;;8.71;84.49;95917.13;5074676;28;19945;-72
2022/12/29 05:19:54;;;;;;;;;;;;;;;8.72;84.33;95912.69;5056596;28;19961;-73
2022/12/29 05:22:20;;;;;;;;;;;;;;;8.71;84.24;95913.69;5074441;28;19955;-72
2022/12/29 05:24:46;;;;;;;;;;;;;;;8.70;84.60;95909.50;5074215;28;20332;-73
2022/12/29 05:27:12;;;;;;;;;;;;;;;8.66;85.70;95930.03;5074657;28;19953;-72
2022/12/29 05:29:38;;;;;;;;;;;;;;;8.66;85.27;95914.38;5074491;28;20423;-72
2022/12/29 05:32:04;;;;;;;;;;;;;;;8.67;85.47;95921.19;5074514;28;19954;-72
2022/12/29 05:34:30;;;;;;;;;;;;;;;8.70;84.29;95918.13;5074148;28;19964;-72
2022/12/29 05:36:56;;;;;;;;;;;;;;;8.76;84.61;95908.63;5074002;28;20030;-72
2022/12/29 05:39:22;;;;;;;;;;;;;;;8.80;84.61;95903.75;5073951;28;20407;-73
2022/12/29 05:41:48;;;;;;;;;;;;;;;8.83;84.73;95916.41;5074325;28;20443;-72
2022/12/29 05:44:14;;;;;;;;;;;;;;;8.85;84.55;95917.75;5074046;28;19993;-73
2022/12/29 05:46:40;;;;;;;;;;;;;;;8.89;83.21;95882.31;5073978;28;20468;-73
2022/12/29 05:49:06;;;;;;;;;;;;;;;8.95;83.38;95901.56;5073469;28;20433;-73
2022/12/29 05:51:32;;;;;;;;;;;;;;;8.98;83.36;95890.66;5073836;28;20389;-73
2022/12/29 05:53:58;;;;;;;;;;;;;;;9.06;83.05;95895.56;5073694;28;19977;-72
2022/12/29 05:56:24;;;;;;;;;;;;;;;9.11;81.68;95880.03;5074500;28;19954;-72
2022/12/29 05:58:50;;;;;;;;;;;;;;;9.13;82.46;95878.00;5073832;28;19953;-73
2022/12/29 06:01:16;;;;;;;;;;;;;;;9.16;82.28;95875.94;5073675;28;20008;-72
2022/12/29 06:03:41;;;;;;;;;;;;;;;9.18;82.57;95873.91;5073726;28;19960;-72
2022/12/29 06:06:07;;;;;;;;;;;;;;;9.21;81.59;95863.00;5074249;28;19959;-72
2022/12/29 06:08:33;;;;;;;;;;;;;;;9.21;82.58;95870.84;5073724;28;20481;-72
2022/12/29 06:10:59;;;;;;;;;;;;;;;9.20;82.63;95872.66;5073664;28;19957;-72
2022/12/29 06:13:25;;;;;;;;;;;;;;;9.17;81.72;95861.84;5073451;28;19966;-72
2022/12/29 06:15:51;;;;;;;;;;;;;;;9.12;81.88;95858.06;5073874;28;19960;-72
2022/12/29 06:18:17;;;;;;;;;;;;;;;9.12;81.09;95852.84;5073432;28;19953;-73
2022/12/29 06:20:43;;;;;;;;;;;;;;;9.14;81.66;95865.69;5073480;28;19953;-72
2022/12/29 06:23:09;;;;;;;;;;;;;;;9.15;82.03;95875.13;5073359;28;20258;-72
2022/12/29 06:25:35;;;;;;;;;;;;;;;9.11;82.77;95877.41;5073545;28;19956;-72
2022/12/29 06:28:02;;;;;;;;;;;;;;;9.06;81.96;95871.25;5073436;28;19959;-72
2022/12/29 06:30:28;;;;;;;;;;;;;;;8.97;81.71;95870.75;5073322;28;19956;-72
2022/12/29 06:32:54;;;;;;;;;;;;;;;8.86;82.41;95876.72;5073778;28;19953;-72
2022/12/29 06:35:22;;;;;;;;;;;;;;;8.76;82.61;95881.66;5073211;28;20428;-72
2022/12/29 06:37:48;;;;;;;;;;;;;;;8.65;82.67;95897.09;5073138;28;19978;-72
2022/12/29 06:40:14;;;;;;;;;;;;;;;8.57;83.61;95900.00;5073551;28;20323;-72
2022/12/29 06:42:40;;;;;;;;;;;;;;;8.50;83.01;95891.41;5073297;28;20034;-72
2022/12/29 06:45:07;;;;;;;;;;;;;;;8.45;83.38;95886.84;5073335;28;19954;-72
2022/12/29 06:47:33;;;;;;;;;;;;;;;8.41;82.64;95888.31;5073149;28;19954;-72
2022/12/29 06:49:59;;;;;;;;;;;;;;;8.39;83.66;95886.91;5073490;28;20014;-72
2022/12/29 06:52:25;;;;;;;;;;;;;;;8.36;84.65;95892.53;5073304;28;20041;-72
2022/12/29 06:54:51;;;;;;;;;;;;;;;8.31;84.89;95888.75;5073273;28;19984;-72
2022/12/29 06:57:17;;;;;;;;;;;;;;;8.27;83.91;95874.56;5073335;28;19953;-72
2022/12/29 06:59:43;;;;;;;;;;;;;;;8.25;84.90;95889.66;5073149;28;19959;-72
2022/12/29 07:02:10;;;;;;;;;;;;;;;8.23;84.95;95893.47;5076040;28;20018;-72
2022/12/29 07:04:36;;;;;;;;;;;;;;;8.22;84.77;95879.63;5077337;28;19951;-72
2022/12/29 07:07:02;;;;;;;;;;;;;;;8.20;85.35;95894.72;5077389;28;19994;-72
2022/12/29 07:09:28;;;;;;;;;;;;;;;8.18;85.07;95878.47;5076854;28;19944;-72
2022/12/29 07:11:54;;;;;;;;;;;;;;;8.17;85.32;95896.94;5076930;28;20421;-72
2022/12/29 07:14:20;;;;;;;;;;;;;;;8.12;85.51;95898.41;5076884;28;19965;-72
2022/12/29 07:16:45;;;;;;;;;;;;;;;8.08;85.21;95889.44;5076744;28;20040;-73
2022/12/29 07:19:11;;;;;;;;;;;;;;;8.05;85.48;95902.91;5076866;28;19985;-72
2022/12/29 07:21:37;;;;;;;;;;;;;;;8.01;85.89;95914.00;5076716;28;19950;-73
2022/12/29 07:24:03;;;;;;;;;;;;;;;7.98;85.66;95919.63;5076754;28;19961;-74
2022/12/29 07:26:29;;;;;;;;;;;;;;;7.93;85.88;95913.22;5076778;28;19950;-72
2022/12/29 07:28:55;;;;;;;;;;;;;;;7.89;85.96;95916.50;5059002;28;19958;-72
2022/12/29 07:31:22;;;;;;;;;;;;;;;7.87;85.91;95914.13;5076665;28;19965;-72
2022/12/29 07:33:48;;;;;;;;;;;;;;;7.84;86.00;95911.13;5076297;28;19969;-72
2022/12/29 07:36:14;;;;;;;;;;;;;;;7.83;86.60;95925.16;5076338;28;19971;-73
2022/12/29 07:38:41;;;;;;;;;;;;;;;7.80;86.80;95923.78;5077074;28;20289;-72
2022/12/29 07:41:07;;;;;;;;;;;;;;;7.79;86.97;95935.25;5076347;28;19944;-72
2022/12/29 07:43:33;;;;;;;;;;;;;;;7.80;86.42;95941.28;5076346;28;19955;-73
2022/12/29 07:45:59;;;;;;;;;;;;;;;7.81;86.81;95943.69;5076156;28;19962;-72
2022/12/29 07:48:26;;;;;;;;;;;;;;;7.83;87.22;95940.81;5076091;28;20314;-72
2022/12/29 07:50:52;;;;;;;;;;;;;;;7.85;87.05;95923.97;5076352;28;19978;-73
2022/12/29 07:53:18;;;;;;;;;;;;;;;7.89;86.44;95925.09;5076392;28;20415;-73
2022/12/29 07:55:44;;;;;;;;;;;;;;;7.92;87.07;95923.91;5076294;28;19968;-72
2022/12/29 07:58:10;;;;;;;;;;;;;;;7.92;87.11;95932.53;5076059;28;20412;-72
2022/12/29 08:00:37;;;;;;;;;;;;;;;7.93;87.12;95935.94;5076256;28;19952;-71
2022/12/29 08:03:04;;;;;;;;;;;;;;;7.94;87.66;95953.22;5076129;28;19952;-71
2022/12/29 08:05:31;;;;;;;;;;;;;;;7.92;87.66;95940.38;5075932;28;20435;-71
2022/12/29 08:07:56;;;;;;;;;;;;;;;7.93;87.68;95944.56;5075965;28;19953;-72
2022/12/29 08:10:22;;;;;;;;;;;;;;;7.92;87.89;95955.25;5075958;28;20417;-72
2022/12/29 08:12:48;;;;;;;;;;;;;;;7.92;88.42;95956.03;5075375;28;20002;-72
2022/12/29 08:15:14;;;;;;;;;;;;;;;7.93;88.45;95969.88;5075578;28;20353;-72
2022/12/29 08:17:40;;;;;;;;;;;;;;;7.92;88.66;95960.47;5075801;28;19954;-72
2022/12/29 08:20:06;;;;;;;;;;;;;;;7.95;88.28;95965.25;5058073;28;19953;-72
2022/12/29 08:22:32;;;;;;;;;;;;;;;7.98;88.82;95977.06;5075740;28;19963;-72
2022/12/29 08:24:58;;;;;;;;;;;;;;;8.02;87.45;95975.63;5075829;28;20014;-72
2022/12/29 08:27:24;;;;;;;;;;;;;;;8.07;88.14;95971.38;5075845;28;19960;-72
2022/12/29 08:29:50;;;;;;;;;;;;;;;8.10;88.16;95977.97;5075403;28;19960;-72
2022/12/29 08:32:16;;;;;;;;;;;;;;;8.12;88.27;95966.28;5075343;28;20409;-71
2022/12/29 08:34:42;;;;;;;;;;;;;;;8.16;86.57;95947.59;5075445;28;20073;-72
2022/12/29 08:37:08;;;;;;;;;;;;;;;8.22;86.33;95946.75;5075646;28;19978;-72
2022/12/29 08:39:34;;;;;;;;;;;;;;;8.28;86.54;95953.72;5075539;28;20400;-72
2022/12/29 08:42:00;;;;;;;;;;;;;;;8.32;87.01;95947.84;5075563;28;20038;-72
2022/12/29 08:44:26;;;;;;;;;;;;;;;8.34;86.28;95934.59;5075188;28;19951;-72
2022/12/29 08:46:52;;;;;;;;;;;;;;;8.37;86.24;95941.19;5075425;28;20355;-72
2022/12/29 08:49:18;;;;;;;;;;;;;;;8.45;84.90;95920.03;5075133;28;19964;-72
2022/12/29 08:51:43;;;;;;;;;;;;;;;8.56;83.78;95919.28;5075408;28;20011;-73
2022/12/29 08:54:09;;;;;;;;;;;;;;;8.66;83.65;95924.81;5075697;28;20065;-72
2022/12/29 08:56:35;;;;;;;;;;;;;;;8.74;83.76;95924.53;5075144;28;19974;-72
2022/12/29 08:59:01;;;;;;;;;;;;;;;8.79;83.92;95929.09;5075059;28;20011;-72
2022/12/29 09:01:27;;;;;;;;;;;;;;;8.83;82.83;95929.47;5074972;28;19960;-72
2022/12/29 09:03:53;;;;;;;;;;;;;;;8.96;81.76;95916.22;5075055;28;19953;-72
2022/12/29 09:06:19;;;;;;;;;;;;;;;9.16;79.52;95894.25;5074668;28;19951;-72
2022/12/29 09:08:45;;;;;;;;;;;;;;;9.35;79.23;95899.19;5075022;28;19958;-72
2022/12/29 09:11:13;;;;;;;;;;;;;;;9.52;81.25;95916.88;5074906;28;20380;-72
2022/12/29 09:13:39;;;;;;;;;;;;;;;9.61;78.76;95897.22;5074643;28;20308;-72
2022/12/29 09:16:05;;;;;;;;;;;;;;;9.66;78.79;95901.75;5074940;28;19948;-72
2022/12/29 09:18:31;;;;;;;;;;;;;;;9.69;78.39;95903.94;5074542;28;19955;-72
2022/12/29 09:20:57;;;;;;;;;;;;;;;9.74;78.11;95906.69;5074794;28;20045;-72
2022/12/29 09:23:24;;;;;;;;;;;;;;;9.84;77.67;95901.69;5073901;28;19959;-73
2022/12/29 09:25:50;;;;;;;;;;;;;;;9.92;77.48;95909.22;5074522;28;20397;-73
2022/12/29 09:28:16;;;;;;;;;;;;;;;10.04;77.02;95893.50;5074529;28;19999;-72
2022/12/29 09:30:42;;;;;;;;;;;;;;;10.21;76.68;95898.88;5073912;28;20360;-73
2022/12/29 09:33:07;;;;;;;;;;;;;;;10.34;78.03;95913.59;5074456;28;20001;-73
2022/12/29 09:35:33;;;;;;;;;;;;;;;10.45;77.14;95904.91;5074454;28;19994;-73
2022/12/29 09:37:59;;;;;;;;;;;;;;;10.52;75.34;95892.47;5056689;28;20026;-73
2022/12/29 09:40:30;;;;;;;;;;;;;;;10.83;75.56;95892.28;5074124;28;20329;-72
2022/12/29 09:43:05;;;;;;;;;;;;;;;11.05;75.08;95880.13;5074010;28;19952;-73
2022/12/29 09:45:31;;;;;;;;;;;;;;;11.12;73.12;95864.25;5057028;28;20417;-73
2022/12/29 09:47:57;;;;;;;;;;;;;;;11.11;74.25;95870.53;5074058;28;19985;-73
2022/12/29 09:50:31;;;;;;;;;;;;;;;11.05;73.38;95868.84;5074384;28;19948;-73
2022/12/29 09:53:16;;;;;;;;;;;;;;;10.95;73.98;95885.97;5073796;28;19951;-73
2022/12/29 09:55:46;;;;;;;;;;;;;;;10.85;74.53;95882.34;5073854;28;19964;-73
2022/12/29 09:58:14;;;;;;;;;;;;;;;10.79;74.58;95897.19;5074107;28;20037;-73
2022/12/29 10:00:49;;;;;;;;;;;;;;;10.74;74.75;95904.97;5073958;28;19947;-72
2022/12/29 10:03:16;;;;;;;;;;;;;;;10.70;75.06;95906.47;5073966;28;19946;-73
2022/12/29 10:05:48;;;;;;;;;;;;;;;10.68;74.99;95922.41;5073976;28;19958;-73
2022/12/29 10:08:16;;;;;;;;;;;;;;;10.71;76.16;95914.09;5073899;28;19944;-73
2022/12/29 10:11:01;;;;;;;;;;;;;;;10.75;76.38;95924.91;5074235;28;19952;-73
2022/12/29 10:13:56;;;;;;;;;;;;;;;10.79;75.64;95910.31;5060589;28;19956;-73
2022/12/29 10:16:22;;;;;;;;;;;;;;;10.87;74.75;95896.81;5002007;28;19951;-73
2022/12/29 10:19:20;;;;;;;;;;;;;;;11.03;74.83;95899.75;5074186;28;20365;-73
2022/12/29 10:22:03;;;;;;;;;;;;;;;11.13;75.70;95923.56;5029442;28;19947;-73
2022/12/29 10:24:30;;;;;;;;;;;;;;;11.13;74.39;95900.75;5063294;28;19957;-73
2022/12/29 10:26:58;;;;;;;;;;;;;;;11.13;75.02;95911.25;5073502;28;19944;-73
2022/12/29 10:29:33;;;;;;;;;;;;;;;11.13;74.84;95899.97;5073618;28;19983;-73
2022/12/29 10:32:00;;;;;;;;;;;;;;;11.12;75.43;95924.59;5073457;28;19954;-73
2022/12/29 10:34:29;;;;;;;;;;;;;;;11.11;74.77;95912.50;5073201;28;19967;-73
2022/12/29 10:36:58;;;;;;;;;;;;;;;11.07;74.05;95896.44;5073431;28;19983;-73
2022/12/29 10:39:33;;;;;;;;;;;;;;;11.06;75.19;95900.06;5073694;28;19952;-73
2022/12/29 10:41:59;;;;;;;;;;;;;;;11.05;75.93;95911.63;5073525;28;19980;-73
2022/12/29 10:44:29;;;;;;;;;;;;;;;11.05;75.46;95911.63;5055608;28;20399;-73
2022/12/29 10:46:57;;;;;;;;;;;;;;;11.01;74.53;95905.25;5055420;28;19954;-73
2022/12/29 10:49:24;;;;;;;;;;;;;;;10.97;74.93;95904.09;5073316;28;20432;-73
2022/12/29 10:51:52;;;;;;;;;;;;;;;10.94;75.08;95912.44;5073259;28;20455;-73
2022/12/29 10:54:23;;;;;;;;;;;;;;;10.90;76.22;95919.19;5073088;28;20065;-73
2022/12/29 10:57:12;;;;;;;;;;;;;;;10.85;75.26;95916.47;5073397;28;20319;-73
2022/12/29 10:59:38;;;;;;;;;;;;;;;10.84;75.88;95917.50;5064758;28;20340;-73
2022/12/29 11:02:04;;;;;;;;;;;;;;;10.82;76.03;95932.69;5073320;28;19955;-73
2022/12/29 11:04:39;;;;;;;;;;;;;;;10.82;75.66;95930.06;5073569;28;19948;-73
2022/12/29 11:07:06;;;;;;;;;;;;;;;10.83;77.04;95940.28;5073154;28;19953;-73
2022/12/29 11:09:34;;;;;;;;;;;;;;;10.84;77.97;95949.78;5073274;28;19955;-73
2022/12/29 11:12:00;;;;;;;;;;;;;;;10.86;78.77;95957.41;5073107;28;19953;-73
2022/12/29 11:14:30;;;;;;;;;;;;;;;10.86;78.65;95957.41;5073088;28;20389;-73
2022/12/29 11:17:03;;;;;;;;;;;;;;;10.88;78.92;95957.97;5072871;28;19947;-73
2022/12/29 11:19:31;;;;;;;;;;;;;;;10.87;79.39;95983.41;5073189;28;20345;-73
2022/12/29 11:22:15;;;;;;;;;;;;;;;10.87;80.04;95985.22;5072957;28;19953;-73
2022/12/29 11:24:45;;;;;;;;;;;;;;;10.87;80.58;95979.97;5072691;28;19946;-73
2022/12/29 11:27:16;;;;;;;;;;;;;;;10.97;81.73;95983.59;5072672;28;19955;-73
2022/12/29 11:29:42;;;;;;;;;;;;;;;11.18;81.04;95978.78;5072408;28;19952;-73
2022/12/29 11:32:27;;;;;;;;;;;;;;;11.31;80.37;95978.50;5072781;28;19963;-73
2022/12/29 11:34:53;;;;;;;;;;;;;;;11.31;79.89;95967.19;5063606;28;19966;-73
2022/12/29 11:37:40;;;;;;;;;;;;;;;11.23;78.25;95955.22;5071733;28;19973;-73
2022/12/29 11:40:15;;;;;;;;;;;;;;;11.10;79.20;95972.06;5064646;28;20405;-73
2022/12/29 11:42:46;;;;;;;;;;;;;;;11.01;80.37;95981.31;5073071;28;19958;-73
2022/12/29 11:45:16;;;;;;;;;;;;;;;10.92;80.55;95982.72;5073018;28;19951;-73
2022/12/29 11:47:44;;;;;;;;;;;;;;;10.84;81.61;95993.56;5074822;28;19971;-73
2022/12/29 11:50:16;;;;;;;;;;;;;;;10.77;81.89;95991.03;5076305;28;19956;-73
2022/12/29 11:52:42;;;;;;;;;;;;;;;10.67;82.90;95998.72;5077047;28;19949;-73
2022/12/29 11:55:17;;;;;;;;;;;;;;;10.62;83.18;95996.75;5076258;28;19967;-73
2022/12/29 11:57:43;;;;;;;;;;;;;;;10.56;83.40;96000.28;5076397;28;19960;-74
2022/12/29 12:00:18;;;;;;;;;;;;;;;10.51;83.66;95992.31;5076203;28;19962;-73
2022/12/29 12:02:45;;;;;;;;;;;;;;;10.45;85.19;96012.38;5076241;28;19959;-73
2022/12/29 12:05:18;;;;;;;;;;;;;;;10.42;85.87;96009.44;5076050;28;19965;-73
2022/12/29 12:07:50;;;;;;;;;;;;;;;10.37;86.81;96010.09;5076177;28;19968;-73
2022/12/29 12:10:18;;;;;;;;;;;;;;;10.33;86.78;96017.63;5076237;28;19950;-73
2022/12/29 12:12:51;;;;;;;;;;;;;;;10.31;87.65;96011.00;5075954;28;19949;-73
2022/12/29 12:15:20;;;;;;;;;;;;;;;10.30;89.14;96019.91;5076092;28;20338;-73
2022/12/29 12:17:49;;;;;;;;;;;;;;;10.30;88.85;96017.28;5076018;28;19953;-73
2022/12/29 12:20:18;;;;;;;;;;;;;;;10.31;90.10;96022.28;5075861;28;19946;-73
2022/12/29 12:22:50;;;;;;;;;;;;;;;10.30;90.97;96033.78;5075960;28;20023;-73
2022/12/29 12:25:25;;;;;;;;;;;;;;;10.29;91.27;96028.72;5075674;28;19958;-73
2022/12/29 12:28:08;;;;;;;;;;;;;;;10.27;92.77;96036.06;5075513;28;19950;-73
2022/12/29 12:30:38;;;;;;;;;;;;;;;10.26;92.70;96039.69;5065048;28;19949;-73
2022/12/29 12:33:06;;;;;;;;;;;;;;;10.23;91.74;96027.03;5057939;28;19959;-73
2022/12/29 12:35:54;;;;;;;;;;;;;;;10.18;91.98;96032.94;5075509;28;19969;-73
2022/12/29 12:38:20;;;;;;;;;;;;;;;10.17;92.64;96031.34;5027302;28;19955;-73
2022/12/29 12:40:54;;;;;;;;;;;;;;;10.17;92.80;96031.34;5074703;28;21467;-73
2022/12/29 12:43:20;;;;;;;;;;;;;;;10.18;93.08;96035.56;5075476;28;20313;-73
2022/12/29 12:45:55;;;;;;;;;;;;;;;10.19;92.74;96016.22;5074814;28;19948;-72
2022/12/29 12:48:57;;;;;;;;;;;;;;;10.18;92.42;95998.88;5075354;28;19956;-72
2022/12/29 12:51:33;;;;;;;;;;;;;;;10.21;92.80;96005.50;5013093;28;19947;-73
2022/12/29 12:54:22;;;;;;;;;;;;;;;10.36;92.39;96003.25;5052631;28;19959;-72
2022/12/29 12:56:48;;;;;;;;;;;;;;;10.53;91.08;95995.53;5075151;28;19964;-73
2022/12/29 12:59:24;;;;;;;;;;;;;;;10.60;89.96;95975.22;5075121;28;19956;-73
2022/12/29 13:01:49;;;;;;;;;;;;;;;10.61;90.06;95986.53;5057821;28;19958;-73
2022/12/29 13:04:18;;;;;;;;;;;;;;;10.60;89.87;95972.59;5057356;28;19944;-73
2022/12/29 13:06:54;;;;;;;;;;;;;;;10.56;90.74;95979.31;5074987;28;19950;-73
2022/12/29 13:09:31;;;;;;;;;;;;;;;10.55;89.80;95975.13;5074906;28;19948;-73
2022/12/29 13:12:10;;;;;;;;;;;;;;;10.52;90.74;95986.03;5075204;28;20279;-73
2022/12/29 13:14:42;;;;;;;;;;;;;;;10.53;91.42;95991.06;5075213;28;19946;-73
2022/12/29 13:17:10;;;;;;;;;;;;;;;10.53;90.33;95979.78;5074836;28;20312;-73
2022/12/29 13:20:15;;;;;;;;;;;;;;;10.46;91.48;95990.41;5074730;28;19947;-73
2022/12/29 13:22:46;;;;;;;;;;;;;;;10.41;91.33;95984.22;5012836;28;19958;-73
2022/12/29 13:25:15;;;;;;;;;;;;;;;10.35;92.85;95997.22;5012960;28;19957;-73
2022/12/29 13:28:00;;;;;;;;;;;;;;;10.29;93.20;95998.13;5044706;28;19954;-73
2022/12/29 13:30:30;;;;;;;;;;;;;;;10.22;94.15;96005.25;5074944;28;19958;-73
2022/12/29 13:33:04;;;;;;;;;;;;;;;10.17;94.89;95994.66;5074289;28;20397;-72
2022/12/29 13:35:48;;;;;;;;;;;;;;;10.15;95.20;96002.75;5074632;28;19967;-73